createdAt,value
2018-03-08T00:01:29.059Z,14.00
2018-03-08T00:03:56.457Z,14.00
2018-03-08T00:06:24.416Z,14.00
2018-03-08T00:08:52.465Z,14.00
2018-03-08T00:11:19.705Z,14.00
2018-03-08T00:13:47.394Z,14.10
2018-03-08T00:16:14.636Z,14.10
2018-03-08T00:18:41.981Z,14.10
2018-03-08T00:21:09.208Z,14.00
2018-03-08T00:23:36.511Z,14.10
2018-03-08T00:26:03.685Z,14.10
2018-03-08T00:28:31.645Z,14.10
2018-03-08T00:30:59.601Z,14.10
2018-03-08T00:33:27.813Z,14.10
2018-03-08T00:35:55.928Z,14.00
2018-03-08T00:38:23.125Z,14.00
2018-03-08T00:40:51.094Z,14.00
2018-03-08T00:43:19.133Z,14.10
2018-03-08T00:45:46.396Z,14.10
2018-03-08T00:48:13.679Z,14.20
2018-03-08T00:50:41.837Z,14.40
2018-03-08T00:53:09.781Z,14.40
2018-03-08T00:55:36.957Z,14.40
2018-03-08T00:58:04.913Z,14.40
2018-03-08T01:00:32.165Z,14.40
2018-03-08T01:02:59.389Z,14.30
2018-03-08T01:05:26.756Z,14.30
2018-03-08T01:07:54.768Z,14.30
2018-03-08T01:10:23.725Z,14.30
2018-03-08T01:12:51.075Z,14.30
2018-03-08T01:15:19.281Z,14.30
2018-03-08T01:17:47.306Z,14.10
2018-03-08T01:20:14.678Z,14.10
2018-03-08T01:22:42.080Z,14.10
2018-03-08T01:25:09.334Z,14.10
2018-03-08T01:27:37.280Z,14.20
2018-03-08T01:30:04.612Z,14.20
2018-03-08T01:32:31.916Z,14.20
2018-03-08T01:34:59.968Z,14.10
2018-03-08T01:37:27.145Z,14.00
2018-03-08T01:39:54.394Z,14.00
2018-03-08T01:42:22.340Z,14.00
2018-03-08T01:44:49.588Z,14.00
2018-03-08T01:47:17.695Z,14.10
2018-03-08T01:49:45.812Z,14.00
2018-03-08T01:52:13.010Z,14.00
2018-03-08T01:54:40.964Z,14.00
2018-03-08T01:57:09.001Z,14.00
2018-03-08T01:59:36.169Z,14.00
2018-03-08T02:02:03.410Z,14.00
2018-03-08T02:04:30.714Z,14.00
2018-03-08T02:06:58.838Z,13.90
2018-03-08T02:09:26.029Z,13.90
2018-03-08T02:11:53.987Z,13.90
2018-03-08T02:14:21.236Z,13.90
2018-03-08T02:16:49.283Z,14.00
2018-03-08T02:19:16.668Z,13.90
2018-03-08T02:21:43.845Z,13.90
2018-03-08T02:24:11.176Z,13.90
2018-03-08T02:26:39.150Z,13.90
2018-03-08T02:29:06.398Z,13.90
2018-03-08T02:31:34.318Z,14.00
2018-03-08T02:34:02.414Z,14.00
2018-03-08T02:36:31.154Z,13.90
2018-03-08T02:38:58.394Z,13.90
2018-03-08T02:41:26.334Z,14.00
2018-03-08T02:43:53.482Z,14.00
2018-03-08T02:46:20.653Z,14.10
2018-03-08T02:48:48.699Z,14.30
2018-03-08T02:51:15.946Z,14.30
2018-03-08T02:53:43.253Z,14.30
2018-03-08T02:56:11.300Z,14.20
2018-03-08T02:58:38.578Z,14.20
2018-03-08T03:01:06.514Z,14.10
2018-03-08T03:03:34.591Z,14.10
2018-03-08T03:06:02.034Z,14.10
2018-03-08T03:08:29.246Z,14.10
2018-03-08T03:10:56.490Z,14.10
2018-03-08T03:13:24.440Z,14.00
2018-03-08T03:15:51.762Z,14.00
2018-03-08T03:18:20.037Z,14.00
2018-03-08T03:20:47.234Z,14.00
2018-03-08T03:23:15.193Z,14.00
2018-03-08T03:25:43.150Z,14.10
2018-03-08T03:28:10.392Z,14.10
2018-03-08T03:30:37.700Z,14.10
2018-03-08T03:33:05.680Z,14.00
2018-03-08T03:35:33.062Z,14.00
2018-03-08T03:38:00.248Z,14.00
2018-03-08T03:40:28.310Z,14.00
2018-03-08T03:42:55.540Z,14.00
2018-03-08T03:45:22.997Z,14.00
2018-03-08T03:47:50.304Z,13.90
2018-03-08T03:50:18.261Z,13.90
2018-03-08T03:52:46.305Z,13.90
2018-03-08T03:55:13.547Z,13.90
2018-03-08T03:57:41.009Z,13.90
2018-03-08T04:00:08.301Z,14.00
2018-03-08T04:02:36.353Z,13.90
2018-03-08T04:05:03.685Z,13.90
2018-03-08T04:07:30.912Z,13.90
2018-03-08T04:09:58.249Z,13.90
2018-03-08T04:12:26.366Z,14.00
2018-03-08T04:14:53.721Z,13.90
2018-03-08T04:17:20.945Z,14.00
2018-03-08T04:19:48.278Z,13.90
2018-03-08T04:22:16.248Z,13.90
2018-03-08T04:24:44.197Z,13.90
2018-03-08T04:27:11.436Z,14.00
2018-03-08T04:29:38.681Z,14.00
2018-03-08T04:32:06.133Z,14.00
2018-03-08T04:34:33.333Z,13.90
2018-03-08T04:37:01.396Z,13.90
2018-03-08T04:39:30.248Z,14.00
2018-03-08T04:41:57.484Z,14.00
2018-03-08T04:44:24.792Z,14.20
2018-03-08T04:46:52.141Z,14.30
2018-03-08T04:49:19.510Z,14.40
2018-03-08T04:51:46.842Z,14.40
2018-03-08T04:54:14.912Z,14.40
2018-03-08T04:56:43.660Z,14.30
2018-03-08T04:59:10.988Z,14.30
2018-03-08T05:01:38.972Z,14.20
2018-03-08T05:04:06.281Z,14.20
2018-03-08T05:06:33.522Z,14.30
2018-03-08T05:09:00.792Z,14.20
2018-03-08T05:11:28.125Z,14.20
2018-03-08T05:13:55.328Z,14.10
2018-03-08T05:16:23.313Z,14.10
2018-03-08T05:18:51.378Z,14.20
2018-03-08T05:21:18.774Z,14.10
2018-03-08T05:23:46.180Z,14.20
2018-03-08T05:26:13.436Z,14.20
2018-03-08T05:28:41.393Z,14.10
2018-03-08T05:31:09.336Z,14.10
2018-03-08T05:33:36.609Z,14.10
2018-03-08T05:36:03.810Z,14.20
2018-03-08T05:38:31.857Z,14.20
2018-03-08T05:41:00.022Z,14.20
2018-03-08T05:43:28.082Z,14.10
2018-03-08T05:45:55.323Z,14.10
2018-03-08T05:48:23.271Z,14.10
2018-03-08T05:50:50.515Z,14.10
2018-03-08T05:53:18.749Z,14.20
2018-03-08T05:55:47.873Z,14.40
2018-03-08T05:58:15.197Z,14.40
2018-03-08T06:00:42.450Z,14.50
2018-03-08T06:03:10.489Z,14.70
2018-03-08T06:05:37.794Z,14.60
2018-03-08T06:08:05.935Z,14.70
2018-03-08T06:10:33.970Z,14.60
2018-03-08T06:13:01.306Z,14.60
2018-03-08T06:15:28.525Z,14.60
2018-03-08T06:17:56.497Z,14.60
2018-03-08T06:20:27.156Z,14.60
2018-03-08T06:22:54.360Z,14.60
2018-03-08T06:25:21.560Z,14.60
2018-03-08T06:27:49.458Z,14.50
2018-03-08T06:30:16.655Z,14.50
2018-03-08T06:32:43.796Z,14.50
2018-03-08T06:35:10.971Z,14.50
2018-03-08T06:37:38.878Z,14.50
2018-03-08T06:40:06.054Z,14.50
2018-03-08T06:42:33.189Z,14.40
2018-03-08T06:45:00.410Z,14.40
2018-03-08T06:47:27.545Z,14.30
2018-03-08T06:49:55.441Z,14.40
2018-03-08T06:52:22.582Z,14.40
2018-03-08T06:54:49.741Z,14.50
2018-03-08T06:57:16.986Z,14.60
2018-03-08T06:59:44.137Z,14.60
2018-03-08T07:02:11.313Z,14.70
2018-03-08T07:04:38.493Z,14.80
2018-03-08T07:07:05.629Z,14.80
2018-03-08T07:09:32.809Z,14.80
2018-03-08T07:11:59.943Z,14.70
2018-03-08T07:14:27.133Z,14.70
2018-03-08T07:16:55.065Z,14.60
2018-03-08T07:19:22.198Z,14.60
2018-03-08T07:21:49.372Z,14.50
2018-03-08T07:24:16.510Z,14.50
2018-03-08T07:26:43.680Z,14.50
2018-03-08T07:29:10.814Z,14.50
2018-03-08T07:31:37.954Z,14.50
2018-03-08T07:34:05.093Z,14.50
2018-03-08T07:36:32.231Z,14.50
2018-03-08T07:38:59.373Z,14.40
2018-03-08T07:41:26.506Z,14.40
2018-03-08T07:43:54.462Z,14.50
2018-03-08T07:46:21.605Z,14.40
2018-03-08T07:48:48.739Z,14.50
2018-03-08T07:51:15.893Z,14.40
2018-03-08T07:53:43.825Z,14.40
2018-03-08T07:56:11.018Z,14.40
2018-03-08T07:58:38.161Z,14.40
2018-03-08T08:01:05.299Z,14.40
2018-03-08T08:03:32.477Z,14.40
2018-03-08T08:06:05.606Z,14.50
2018-03-08T08:08:38.562Z,14.60
2018-03-08T08:11:05.698Z,14.70
2018-03-08T08:13:32.873Z,14.80
2018-03-08T08:16:00.773Z,14.80
2018-03-08T08:18:27.943Z,14.80
2018-03-08T08:20:55.094Z,14.70
2018-03-08T08:23:22.268Z,14.70
2018-03-08T08:25:49.406Z,14.70
2018-03-08T08:28:16.581Z,14.70
2018-03-08T08:30:43.715Z,14.60
2018-03-08T08:33:11.653Z,14.60
2018-03-08T08:35:38.785Z,14.50
2018-03-08T08:38:05.964Z,14.50
2018-03-08T08:40:33.144Z,14.60
2018-03-08T08:43:01.069Z,14.50
2018-03-08T08:45:28.254Z,14.50
2018-03-08T08:47:55.389Z,14.50
2018-03-08T08:50:22.520Z,14.50
2018-03-08T08:52:49.657Z,14.40
2018-03-08T08:55:17.559Z,14.40
2018-03-08T08:57:44.698Z,14.40
2018-03-08T09:00:11.847Z,14.40
2018-03-08T09:02:39.029Z,14.40
2018-03-08T09:05:06.205Z,14.40
2018-03-08T09:07:33.437Z,14.40
2018-03-08T09:10:00.546Z,14.40
2018-03-08T09:12:28.527Z,14.40
2018-03-08T09:14:55.665Z,14.40
2018-03-08T09:17:22.804Z,14.40
2018-03-08T09:19:50.703Z,14.40
2018-03-08T09:22:17.837Z,14.40
2018-03-08T09:24:45.006Z,14.50
2018-03-08T09:27:12.143Z,14.60
2018-03-08T09:29:39.285Z,14.70
2018-03-08T09:32:06.426Z,14.70
2018-03-08T09:34:34.324Z,14.60
2018-03-08T09:37:01.470Z,14.60
2018-03-08T09:39:28.600Z,14.60
2018-03-08T09:41:55.729Z,14.70
2018-03-08T09:44:23.634Z,14.60
2018-03-08T09:46:50.771Z,14.60
2018-03-08T09:49:17.901Z,14.60
2018-03-08T09:51:45.825Z,14.50
2018-03-08T09:54:13.743Z,14.50
2018-03-08T09:56:41.641Z,14.50
2018-03-08T09:59:08.780Z,14.50
2018-03-08T10:01:35.932Z,14.50
2018-03-08T10:04:03.078Z,14.50
2018-03-08T10:06:30.215Z,14.50
2018-03-08T10:08:58.123Z,14.40
2018-03-08T10:11:25.269Z,14.40
2018-03-08T10:13:52.445Z,14.40
2018-03-08T10:16:20.344Z,14.40
2018-03-08T10:18:48.285Z,14.40
2018-03-08T10:21:15.416Z,14.40
2018-03-08T10:23:42.550Z,14.40
2018-03-08T10:26:09.730Z,14.40
2018-03-08T10:28:36.859Z,14.40
2018-03-08T10:31:03.995Z,14.40
2018-03-08T10:33:31.173Z,14.40
2018-03-08T10:35:58.320Z,14.40
2018-03-08T10:38:25.457Z,14.40
2018-03-08T10:40:52.594Z,14.40
2018-03-08T10:43:19.729Z,14.40
2018-03-08T10:45:47.638Z,14.50
2018-03-08T10:48:14.785Z,14.50
2018-03-08T10:50:41.917Z,14.50
2018-03-08T10:53:09.052Z,14.50
2018-03-08T10:55:36.956Z,14.60
2018-03-08T10:58:04.987Z,14.60
2018-03-08T11:00:38.708Z,14.80
2018-03-08T11:03:06.926Z,14.70
2018-03-08T11:05:47.938Z,14.80
2018-03-08T11:08:15.848Z,14.80
2018-03-08T11:10:43.014Z,14.80
2018-03-08T11:13:10.146Z,14.70
2018-03-08T11:15:37.321Z,14.70
2018-03-08T11:18:04.465Z,14.70
2018-03-08T11:20:31.603Z,14.70
2018-03-08T11:22:58.746Z,14.70
2018-03-08T11:25:25.887Z,14.60
2018-03-08T11:27:53.062Z,14.70
2018-03-08T11:30:20.199Z,14.70
2018-03-08T11:32:47.379Z,14.70
2018-03-08T11:35:15.341Z,14.60
2018-03-08T11:37:42.531Z,14.70
2018-03-08T11:40:10.482Z,14.60
2018-03-08T11:42:37.619Z,14.50
2018-03-08T11:45:04.803Z,14.60
2018-03-08T11:47:32.720Z,14.60
2018-03-08T11:49:59.894Z,14.60
2018-03-08T11:52:27.038Z,14.60
2018-03-08T11:54:54.278Z,14.60
2018-03-08T11:57:22.157Z,14.60
2018-03-08T11:59:50.114Z,14.60
2018-03-08T12:02:17.248Z,14.60
2018-03-08T12:04:44.382Z,14.60
2018-03-08T12:07:12.292Z,14.60
2018-03-08T12:09:39.439Z,14.60
2018-03-08T12:12:06.614Z,14.50
2018-03-08T12:14:33.746Z,14.50
2018-03-08T12:17:00.979Z,14.50
2018-03-08T12:19:28.888Z,14.50
2018-03-08T12:21:56.027Z,14.50
2018-03-08T12:24:23.208Z,14.50
2018-03-08T12:26:50.393Z,14.50
2018-03-08T12:29:17.526Z,14.50
2018-03-08T12:31:45.436Z,14.60
2018-03-08T12:34:12.577Z,14.50
2018-03-08T12:36:39.710Z,14.60
2018-03-08T12:39:06.887Z,14.60
2018-03-08T12:41:34.030Z,14.60
2018-03-08T12:44:01.206Z,14.60
2018-03-08T12:46:29.150Z,14.50
2018-03-08T12:48:56.344Z,14.50
2018-03-08T12:51:23.479Z,14.50
2018-03-08T12:53:50.623Z,14.50
2018-03-08T12:56:17.765Z,14.60
2018-03-08T12:58:44.905Z,14.80
2018-03-08T13:01:12.036Z,14.80
2018-03-08T13:03:39.973Z,14.90
2018-03-08T13:06:07.110Z,14.80
2018-03-08T13:08:35.014Z,14.90
2018-03-08T13:11:02.913Z,14.80
2018-03-08T13:13:30.057Z,14.80
2018-03-08T13:15:57.189Z,14.80
2018-03-08T13:18:25.097Z,14.70
2018-03-08T13:20:52.228Z,14.70
2018-03-08T13:23:19.369Z,14.70
2018-03-08T13:25:46.542Z,14.70
2018-03-08T13:28:13.674Z,14.60
2018-03-08T13:30:40.851Z,14.60
2018-03-08T13:33:07.994Z,14.60
2018-03-08T13:35:35.171Z,14.60
2018-03-08T13:38:02.308Z,14.70
2018-03-08T13:40:29.448Z,14.70
2018-03-08T13:42:56.586Z,14.70
2018-03-08T13:45:23.726Z,14.60
2018-03-08T13:47:50.862Z,14.50
2018-03-08T13:50:18.773Z,14.50
2018-03-08T13:52:45.910Z,14.50
2018-03-08T13:55:13.053Z,14.60
2018-03-08T13:57:40.225Z,14.60
2018-03-08T14:00:07.361Z,14.60
2018-03-08T14:02:34.504Z,14.60
2018-03-08T14:05:01.665Z,14.60
2018-03-08T14:07:28.806Z,14.60
2018-03-08T14:09:55.938Z,14.60
2018-03-08T14:12:23.839Z,14.70
2018-03-08T14:14:50.973Z,14.60
2018-03-08T14:17:18.119Z,14.60
2018-03-08T14:19:45.306Z,14.60
2018-03-08T14:22:12.449Z,14.50
2018-03-08T14:24:39.586Z,14.50
2018-03-08T14:27:06.726Z,14.50
2018-03-08T14:29:33.862Z,14.50
2018-03-08T14:32:01.775Z,14.40
2018-03-08T14:34:28.982Z,14.40
2018-03-08T14:36:56.889Z,14.40
2018-03-08T14:39:24.065Z,14.40
2018-03-08T14:41:51.238Z,14.50
2018-03-08T14:44:18.374Z,14.50
2018-03-08T14:46:45.551Z,14.50
2018-03-08T14:49:13.480Z,14.50
2018-03-08T14:51:40.658Z,14.40
2018-03-08T14:54:07.790Z,14.50
2018-03-08T14:56:34.966Z,14.60
2018-03-08T14:59:02.880Z,14.80
2018-03-08T15:01:30.018Z,14.80
2018-03-08T15:03:57.162Z,14.80
2018-03-08T15:06:24.348Z,14.90
2018-03-08T15:08:52.309Z,14.70
2018-03-08T15:11:19.477Z,14.70
2018-03-08T15:13:46.614Z,14.70
2018-03-08T15:16:13.781Z,14.70
2018-03-08T15:18:40.956Z,14.70
2018-03-08T15:21:08.121Z,14.70
2018-03-08T15:23:36.029Z,14.70
2018-03-08T15:26:03.165Z,14.60
2018-03-08T15:28:30.310Z,14.60
2018-03-08T15:30:57.486Z,14.50
2018-03-08T15:33:24.623Z,14.60
2018-03-08T15:35:51.761Z,14.60
2018-03-08T15:38:18.897Z,14.60
2018-03-08T15:40:46.801Z,14.60
2018-03-08T15:43:13.942Z,14.60
2018-03-08T15:45:41.077Z,14.50
2018-03-08T15:48:08.215Z,14.40
2018-03-08T15:50:36.123Z,14.60
2018-03-08T15:53:03.262Z,14.50
2018-03-08T15:55:30.433Z,14.60
2018-03-08T15:57:57.580Z,14.60
2018-03-08T16:00:24.756Z,14.60
2018-03-08T16:02:51.893Z,14.60
2018-03-08T16:05:19.078Z,14.60
2018-03-08T16:08:04.941Z,14.60
2018-03-08T16:10:36.213Z,14.60
2018-03-08T16:13:03.346Z,14.60
2018-03-08T16:15:30.490Z,14.60
2018-03-08T16:17:57.625Z,14.60
2018-03-08T16:20:24.786Z,14.60
2018-03-08T16:22:51.930Z,14.70
2018-03-08T16:25:19.091Z,14.60
2018-03-08T16:27:46.226Z,14.70
2018-03-08T16:30:13.360Z,14.70
2018-03-08T16:32:40.501Z,14.70
2018-03-08T16:35:07.678Z,14.60
2018-03-08T16:37:34.845Z,14.60
2018-03-08T16:40:01.983Z,14.70
2018-03-08T16:42:29.136Z,14.70
2018-03-08T16:44:56.282Z,14.70
2018-03-08T16:47:23.438Z,14.70
2018-03-08T16:49:50.669Z,14.70
2018-03-08T16:52:17.813Z,14.80
2018-03-08T16:54:44.963Z,14.90
2018-03-08T16:57:12.162Z,15.00
2018-03-08T16:59:39.304Z,15.00
2018-03-08T17:02:06.441Z,15.00
2018-03-08T17:04:33.916Z,15.00
2018-03-08T17:07:01.082Z,14.90
2018-03-08T17:09:28.375Z,14.90
2018-03-08T17:11:55.759Z,14.90
2018-03-08T17:14:23.102Z,14.90
2018-03-08T17:16:50.242Z,14.90
2018-03-08T17:19:17.377Z,14.90
2018-03-08T17:21:45.285Z,14.90
2018-03-08T17:24:12.493Z,14.80
2018-03-08T17:26:40.487Z,14.80
2018-03-08T17:29:07.735Z,14.80
2018-03-08T17:31:34.909Z,14.80
2018-03-08T17:34:02.059Z,14.80
2018-03-08T17:36:29.192Z,14.80
2018-03-08T17:38:56.321Z,14.70
2018-03-08T17:41:24.227Z,14.80
2018-03-08T17:43:51.416Z,14.70
2018-03-08T17:46:18.610Z,14.80
2018-03-08T17:48:45.785Z,14.80
2018-03-08T17:51:12.923Z,14.80
2018-03-08T17:53:40.059Z,14.80
2018-03-08T17:56:07.243Z,14.70
2018-03-08T17:58:34.381Z,14.70
2018-03-08T18:01:02.291Z,14.70
2018-03-08T18:03:29.690Z,14.70
2018-03-08T18:05:56.825Z,14.70
2018-03-08T18:08:24.726Z,14.60
2018-03-08T18:10:51.861Z,14.60
2018-03-08T18:13:19.001Z,14.50
2018-03-08T18:15:46.902Z,14.60
2018-03-08T18:18:14.044Z,14.60
2018-03-08T18:20:41.217Z,14.50
2018-03-08T18:23:08.429Z,14.50
2018-03-08T18:25:35.631Z,14.50
2018-03-08T18:28:02.793Z,14.40
2018-03-08T18:30:29.929Z,14.50
2018-03-08T18:32:57.071Z,14.50
2018-03-08T18:35:24.210Z,14.50
2018-03-08T18:37:51.345Z,14.50
2018-03-08T18:40:19.885Z,14.40
2018-03-08T18:42:47.021Z,14.40
2018-03-08T18:45:14.161Z,14.50
2018-03-08T18:47:41.292Z,14.60
2018-03-08T18:50:08.429Z,14.70
2018-03-08T18:52:36.338Z,14.80
2018-03-08T18:55:03.477Z,14.80
2018-03-08T18:57:30.708Z,14.90
2018-03-08T18:59:57.846Z,14.80
2018-03-08T19:02:25.741Z,14.70
2018-03-08T19:04:52.881Z,14.70
2018-03-08T19:07:20.013Z,14.70
2018-03-08T19:09:47.921Z,14.70
2018-03-08T19:12:15.058Z,14.60
2018-03-08T19:14:42.245Z,14.60
2018-03-08T19:17:09.377Z,14.50
2018-03-08T19:19:36.540Z,14.60
2018-03-08T19:22:03.682Z,14.60
2018-03-08T19:24:30.825Z,14.60
2018-03-08T19:26:57.961Z,14.60
2018-03-08T19:29:25.094Z,14.60
2018-03-08T19:31:52.997Z,14.60
2018-03-08T19:34:20.149Z,14.50
2018-03-08T19:36:47.289Z,14.50
2018-03-08T19:39:14.421Z,14.60
2018-03-08T19:41:41.554Z,14.50
2018-03-08T19:44:09.465Z,14.40
2018-03-08T19:46:36.636Z,14.40
2018-03-08T19:49:03.809Z,14.40
2018-03-08T19:51:30.961Z,14.30
2018-03-08T19:53:58.279Z,14.40
2018-03-08T19:56:25.461Z,14.30
2018-03-08T19:58:53.350Z,14.30
2018-03-08T20:01:21.254Z,14.20
2018-03-08T20:03:48.394Z,14.20
2018-03-08T20:06:15.529Z,14.20
2018-03-08T20:08:43.433Z,14.20
2018-03-08T20:11:11.467Z,14.20
2018-03-08T20:13:39.406Z,14.30
2018-03-08T20:16:06.544Z,14.30
2018-03-08T20:18:33.683Z,14.50
2018-03-08T20:21:02.902Z,14.60
2018-03-08T20:23:30.046Z,14.70
2018-03-08T20:25:57.180Z,14.60
2018-03-08T20:28:24.313Z,14.60
2018-03-08T20:30:51.581Z,14.50
2018-03-08T20:33:18.717Z,14.50
2018-03-08T20:35:45.862Z,14.50
2018-03-08T20:38:12.997Z,14.50
2018-03-08T20:40:40.903Z,14.50
2018-03-08T20:43:08.981Z,14.50
2018-03-08T20:45:36.122Z,14.50
2018-03-08T20:48:03.258Z,14.40
2018-03-08T20:50:30.393Z,14.30
2018-03-08T20:52:59.330Z,14.30
2018-03-08T20:55:26.496Z,14.30
2018-03-08T20:57:53.635Z,14.30
2018-03-08T21:00:20.789Z,14.30
2018-03-08T21:02:47.922Z,14.30
2018-03-08T21:05:15.061Z,14.30
2018-03-08T21:07:42.301Z,14.20
2018-03-08T21:10:09.445Z,14.20
2018-03-08T21:12:36.577Z,14.20
2018-03-08T21:15:04.478Z,14.30
2018-03-08T21:17:31.617Z,14.20
2018-03-08T21:19:58.749Z,14.30
2018-03-08T21:22:27.591Z,14.20
2018-03-08T21:24:54.725Z,14.20
2018-03-08T21:27:21.857Z,14.20
2018-03-08T21:29:48.991Z,14.20
2018-03-08T21:32:16.889Z,14.30
2018-03-08T21:34:44.024Z,14.30
2018-03-08T21:37:11.922Z,14.10
2018-03-08T21:39:41.030Z,14.10
2018-03-08T21:42:08.170Z,14.10
2018-03-08T21:44:35.346Z,14.10
2018-03-08T21:47:02.477Z,14.10
2018-03-08T21:49:29.621Z,14.10
2018-03-08T21:51:56.757Z,14.10
2018-03-08T21:54:23.896Z,14.10
2018-03-08T21:56:51.025Z,14.10
2018-03-08T21:59:18.931Z,14.10
2018-03-08T22:01:46.061Z,14.10
2018-03-08T22:04:14.007Z,14.20
2018-03-08T22:06:41.141Z,14.20
2018-03-08T22:09:08.273Z,14.20
2018-03-08T22:11:35.426Z,14.20
2018-03-08T22:14:02.569Z,14.20
2018-03-08T22:16:29.701Z,14.30
2018-03-08T22:18:56.833Z,14.40
2018-03-08T22:21:24.733Z,14.50
2018-03-08T22:23:51.866Z,14.50
2018-03-08T22:26:19.005Z,14.60
2018-03-08T22:28:46.142Z,14.50
2018-03-08T22:31:14.058Z,14.40
2018-03-08T22:33:41.203Z,14.30
2018-03-08T22:36:08.382Z,14.40
2018-03-08T22:38:35.517Z,14.50
2018-03-08T22:41:02.658Z,14.40
2018-03-08T22:43:29.792Z,14.50
2018-03-08T22:45:57.892Z,14.40
2018-03-08T22:48:25.044Z,14.40
2018-03-08T22:50:52.181Z,14.40
2018-03-08T22:53:19.313Z,14.40
2018-03-08T22:55:46.444Z,14.40
2018-03-08T22:58:14.350Z,14.40
2018-03-08T23:00:41.486Z,14.40
2018-03-08T23:03:14.477Z,14.40
2018-03-08T23:05:41.617Z,14.30
2018-03-08T23:08:08.804Z,14.40
2018-03-08T23:10:35.945Z,14.40
2018-03-08T23:13:03.093Z,14.40
2018-03-08T23:15:30.290Z,14.50
2018-03-08T23:17:57.424Z,14.50
2018-03-08T23:20:24.569Z,14.40
2018-03-08T23:22:52.542Z,14.30
2018-03-08T23:25:19.786Z,14.40
2018-03-08T23:30:54.976Z,14.50
2018-03-08T23:33:43.542Z,14.50
2018-03-08T23:41:45.600Z,14.40
2018-03-08T23:50:12.593Z,14.40
2018-03-08T23:52:42.810Z,14.40
2018-03-08T23:55:22.923Z,14.40
2018-03-08T23:58:05.323Z,14.50
